Time;durP1;ratioP1;P1;durP2;ratioP2;P2;SDS_P1;SDS_P2;PMS_P1;PMS_P2;Temp;Humidity;BMP_temperature;BMP_pressure;BME280_temperature;BME280_humidity;BME280_pressure;Samples;Min_cycle;Max_cycle;Signal;HPM_P1;HPM_P2
2022/01/17 00:01:49;;;;;;;8.33;6.30;;;;;;;2.92;87.49;99482.94;5058006;28;20209;-70
2022/01/17 00:04:16;;;;;;;6.77;6.00;;;;;;;2.91;87.51;99480.44;5057970;28;20197;-70
2022/01/17 00:06:43;;;;;;;6.23;5.17;;;;;;;2.87;88.32;99485.16;5057780;28;20221;-70
2022/01/17 00:09:12;;;;;;;7.20;5.73;;;;;;;2.89;87.22;99480.59;5057544;28;20205;-70
2022/01/17 00:11:42;;;;;;;6.57;5.53;;;;;;;2.87;88.67;99492.19;5057760;28;20209;-70
2022/01/17 00:14:12;;;;;;;6.90;5.90;;;;;;;3.01;87.10;99502.31;5057756;28;20193;-70
2022/01/17 00:16:43;;;;;;;6.77;5.13;;;;;;;3.18;85.70;99509.53;5057669;28;20221;-70
2022/01/17 00:21:51;;;;;;;7.27;5.90;;;;;;;3.08;86.96;99513.94;5057409;28;20299;-70
2022/01/17 00:24:18;;;;;;;7.00;6.20;;;;;;;3.10;86.95;99525.97;5057570;28;20208;-70
2022/01/17 00:26:46;;;;;;;5.50;5.00;;;;;;;3.28;85.95;99544.50;5057330;28;20236;-70
2022/01/17 00:29:13;;;;;;;6.47;5.80;;;;;;;3.30;85.88;99529.47;5057510;28;20189;-70
2022/01/17 00:31:40;;;;;;;7.30;5.50;;;;;;;3.19;86.21;99521.69;5057104;28;20208;-71
2022/01/17 00:34:06;;;;;;;7.40;6.13;;;;;;;3.32;86.33;99536.22;5057039;28;20619;-70
2022/01/17 00:36:32;;;;;;;9.23;5.93;;;;;;;3.48;84.19;99543.56;5057258;28;20197;-70
2022/01/17 00:38:59;;;;;;;7.47;6.20;;;;;;;3.31;85.30;99547.72;5057015;28;20198;-70
2022/01/17 00:41:25;;;;;;;7.17;6.43;;;;;;;3.33;85.71;99547.56;5057201;28;20201;-70
2022/01/17 00:43:51;;;;;;;8.47;7.03;;;;;;;3.41;84.99;99547.72;5056759;28;20221;-70
2022/01/17 00:46:18;;;;;;;8.57;6.93;;;;;;;3.33;86.03;99552.81;5056824;28;20208;-70
2022/01/17 00:48:44;;;;;;;11.57;7.73;;;;;;;3.25;85.81;99548.25;5057154;28;20201;-69
2022/01/17 00:51:10;;;;;;;9.73;8.20;;;;;;;3.14;86.83;99558.91;5057089;28;20208;-70
2022/01/17 00:53:37;;;;;;;10.03;8.20;;;;;;;2.96;87.15;99544.75;5056290;28;20208;-70
2022/01/17 00:56:07;;;;;;;12.27;9.03;;;;;;;3.04;87.74;99550.19;5057070;28;20193;-70
2022/01/17 00:58:34;;;;;;;10.87;9.27;;;;;;;2.96;88.18;99549.16;5056684;28;20655;-70
2022/01/17 01:01:01;;;;;;;12.47;9.03;;;;;;;3.08;87.96;99559.41;5056949;28;20197;-70
2022/01/17 01:03:27;;;;;;;12.43;9.87;;;;;;;3.04;88.31;99555.44;5056612;28;20206;-70
2022/01/17 01:05:54;;;;;;;13.23;10.03;;;;;;;2.97;88.98;99567.44;5056590;28;20608;-70
2022/01/17 01:08:20;;;;;;;11.17;9.60;;;;;;;2.87;89.75;99570.97;5056757;28;20251;-70
2022/01/17 01:10:47;;;;;;;16.20;10.33;;;;;;;2.84;89.41;99566.84;5056773;28;20208;-70
2022/01/17 01:13:13;;;;;;;16.50;11.83;;;;;;;2.89;88.39;99579.59;5056720;28;20208;-70
2022/01/17 01:15:58;;;;;;;13.90;11.90;;;;;;;2.91;88.58;99577.63;5056685;28;20205;-70
2022/01/17 01:18:38;;;;;;;17.13;12.93;;;;;;;2.84;88.93;99579.97;5056417;28;20263;-70
2022/01/17 01:21:42;;;;;;;17.23;12.53;;;;;;;2.74;89.13;99573.00;5056626;28;20193;-71
2022/01/17 01:29:56;;;;;;;17.97;13.90;;;;;;;2.68;89.45;99587.53;4995273;28;20178;-70
2022/01/17 01:32:27;;;;;;;18.00;13.63;;;;;;;2.76;88.98;99592.94;5031324;28;20227;-70
2022/01/17 01:34:57;;;;;;;21.00;15.10;;;;;;;2.73;88.83;99592.38;5056830;28;20205;-70
2022/01/17 01:37:23;;;;;;;17.53;14.37;;;;;;;2.70;90.19;99588.22;5056375;28;20221;-70
2022/01/17 01:39:52;;;;;;;18.63;13.73;;;;;;;2.74;88.77;99578.25;5056383;28;20208;-69
2022/01/17 01:42:19;;;;;;;18.10;14.03;;;;;;;2.74;89.10;99578.25;5056459;28;20507;-70
2022/01/17 01:44:48;;;;;;;16.67;13.40;;;;;;;2.76;88.54;99581.59;5056320;28;20212;-70
2022/01/17 01:47:14;;;;;;;16.07;12.50;;;;;;;2.78;88.40;99571.78;5055859;28;20221;-70
2022/01/17 01:49:41;;;;;;;16.53;13.07;;;;;;;2.74;88.56;99573.84;5055992;28;20201;-69
2022/01/17 01:52:07;;;;;;;17.23;13.13;;;;;;;2.77;87.71;99578.00;5056047;28;20581;-69
2022/01/17 01:54:34;;;;;;;17.40;14.03;;;;;;;2.75;88.26;99572.88;5056269;28;20209;-69
2022/01/17 01:57:01;;;;;;;17.53;13.07;;;;;;;2.71;88.44;99557.53;5056152;28;20221;-70
2022/01/17 01:59:27;;;;;;;17.43;13.17;;;;;;;2.74;88.39;99558.09;5056304;28;20190;-69
2022/01/17 02:01:54;;;;;;;16.23;12.63;;;;;;;2.77;88.16;99549.13;5055904;28;20208;-70
2022/01/17 02:04:20;;;;;;;17.17;13.40;;;;;;;2.76;87.80;99550.09;5057067;28;20263;-70
2022/01/17 02:06:47;;;;;;;19.33;12.93;;;;;;;2.73;88.79;99553.81;5059817;28;20224;-70
2022/01/17 02:09:13;;;;;;;15.97;12.67;;;;;;;2.68;88.85;99547.28;5059942;28;20208;-70
2022/01/17 02:11:40;;;;;;;15.70;12.57;;;;;;;2.69;89.37;99546.31;5060153;28;20228;-70
2022/01/17 02:14:06;;;;;;;16.30;12.57;;;;;;;2.69;88.85;99544.53;5060121;28;20209;-70
2022/01/17 02:16:33;;;;;;;15.67;11.50;;;;;;;2.73;89.27;99543.31;5060067;28;20197;-70
2022/01/17 02:19:00;;;;;;;16.00;12.83;;;;;;;2.77;89.04;99543.88;5060068;28;20201;-70
2022/01/17 02:21:32;;;;;;;16.20;11.93;;;;;;;2.75;90.30;99543.19;5060023;28;20300;-70
2022/01/17 02:24:00;;;;;;;16.17;12.43;;;;;;;2.72;90.99;99549.53;5059968;28;20196;-70
2022/01/17 02:26:28;;;;;;;15.60;12.33;;;;;;;2.72;91.48;99543.44;5059866;28;20507;-70
2022/01/17 02:28:57;;;;;;;17.13;12.37;;;;;;;2.71;91.62;99536.53;5059818;28;20221;-70
2022/01/17 02:31:25;;;;;;;16.33;12.23;;;;;;;2.71;92.43;99531.28;5059817;28;20208;-70
2022/01/17 02:33:53;;;;;;;16.37;12.93;;;;;;;2.62;94.55;99539.97;5059775;28;20232;-70
2022/01/17 02:36:20;;;;;;;16.13;12.20;;;;;;;2.61;95.32;99533.03;5059624;28;20231;-70
2022/01/17 02:38:46;;;;;;;15.63;11.97;;;;;;;2.61;95.33;99544.38;5059725;28;20201;-71
2022/01/17 02:41:13;;;;;;;15.80;11.50;;;;;;;2.59;96.07;99546.31;5059664;28;20203;-71
2022/01/17 02:43:40;;;;;;;15.63;11.90;;;;;;;2.63;96.31;99552.13;5059254;28;20209;-70
2022/01/17 02:48:50;;;;;;;13.60;10.47;;;;;;;2.75;91.62;99564.19;5059249;28;20200;-71
2022/01/17 02:51:17;;;;;;;14.50;10.13;;;;;;;2.83;91.64;99566.97;5059446;28;20201;-70
2022/01/17 02:53:43;;;;;;;14.00;10.73;;;;;;;2.84;92.26;99563.41;5059073;28;20216;-70
2022/01/17 02:56:11;;;;;;;14.57;10.90;;;;;;;2.88;91.72;99570.00;5059043;28;20501;-70
2022/01/17 02:58:40;;;;;;;16.67;12.43;;;;;;;2.84;93.35;99566.84;5059198;28;20216;-70
2022/01/17 03:01:15;;;;;;;14.47;11.80;;;;;;;2.88;91.61;99559.50;5059260;28;20213;-69
2022/01/17 03:03:43;;;;;;;14.77;11.50;;;;;;;2.78;93.44;99572.63;5059305;28;20189;-70
2022/01/17 03:06:10;;;;;;;15.20;11.20;;;;;;;2.73;94.52;99566.94;5059187;28;20205;-70
2022/01/17 03:08:38;;;;;;;12.83;11.47;;;;;;;2.74;94.14;99567.75;5058708;28;20225;-70
2022/01/17 03:11:06;;;;;;;15.73;11.90;;;;;;;2.85;92.46;99573.75;5058729;28;20601;-70
2022/01/17 03:13:35;;;;;;;15.73;11.67;;;;;;;2.82;92.87;99570.56;5058734;28;20209;-70
2022/01/17 03:16:08;;;;;;;14.47;11.23;;;;;;;2.80;94.12;99572.50;5057818;28;20635;-70
2022/01/17 03:18:37;;;;;;;14.30;11.00;;;;;;;2.80;94.07;99570.69;5058897;28;20217;-70
2022/01/17 03:21:04;;;;;;;16.27;11.20;;;;;;;2.83;94.90;99566.97;5058870;28;20243;-70
2022/01/17 03:23:31;;;;;;;15.17;11.87;;;;;;;2.79;94.14;99569.03;5059629;28;20255;-70
2022/01/17 03:25:57;;;;;;;14.13;11.23;;;;;;;2.82;94.70;99570.56;5058809;28;20208;-71
2022/01/17 03:28:25;;;;;;;16.07;12.10;;;;;;;2.85;92.04;99560.59;5058622;28;20222;-70
2022/01/17 03:30:52;;;;;;;16.07;11.57;;;;;;;2.87;93.34;99542.94;5058708;28;20258;-70
2022/01/17 03:33:18;;;;;;;14.13;11.47;;;;;;;2.86;92.93;99540.44;5058670;28;20201;-70
2022/01/17 03:35:45;;;;;;;15.37;11.67;;;;;;;2.86;93.83;99541.28;5058280;28;20609;-70
2022/01/17 03:38:15;;;;;;;13.87;11.70;;;;;;;3.01;93.38;99539.09;5058521;28;20217;-71
2022/01/17 03:40:42;;;;;;;14.43;11.37;;;;;;;3.10;91.62;99548.78;5058499;28;20208;-70
2022/01/17 03:43:08;;;;;;;15.73;11.93;;;;;;;3.05;92.79;99561.50;5058132;28;20267;-70
2022/01/17 03:45:35;;;;;;;16.03;12.17;;;;;;;2.94;93.95;99570.31;5058469;28;20208;-70
2022/01/17 03:48:02;;;;;;;18.50;12.33;;;;;;;2.90;95.56;99568.09;5058002;28;20588;-70
2022/01/17 03:50:29;;;;;;;16.47;13.33;;;;;;;2.85;94.33;99567.69;5058397;28;20198;-70
2022/01/17 03:52:56;;;;;;;17.37;12.60;;;;;;;2.81;94.85;99563.66;5058028;28;20585;-70
2022/01/17 03:55:24;;;;;;;17.23;12.60;;;;;;;2.75;95.98;99572.06;5058253;28;20201;-70
2022/01/17 03:57:51;;;;;;;18.07;13.50;;;;;;;2.73;97.90;99577.44;5058164;28;20217;-70
2022/01/17 04:00:28;;;;;;;20.13;14.47;;;;;;;2.70;97.67;99579.50;5058152;28;20205;-71
2022/01/17 04:02:56;;;;;;;17.00;13.80;;;;;;;2.66;99.25;99565.81;5057923;28;20189;-70
2022/01/17 04:05:23;;;;;;;19.27;14.77;;;;;;;2.59;100.00;99564.69;5057647;28;20499;-70
2022/01/17 04:07:49;;;;;;;17.83;13.97;;;;;;;2.59;100.00;99582.22;5057670;28;20229;-70
2022/01/17 04:10:17;;;;;;;19.77;15.57;;;;;;;2.79;98.08;99589.19;5057956;28;20197;-70
2022/01/17 04:12:44;;;;;;;20.80;14.87;;;;;;;2.98;94.54;99590.09;5057788;28;20224;-70
2022/01/17 04:15:12;;;;;;;21.30;15.87;;;;;;;2.80;95.48;99578.56;5057568;28;20616;-70
2022/01/17 04:17:40;;;;;;;25.70;16.40;;;;;;;2.61;97.78;99575.88;5057612;28;20221;-70
2022/01/17 04:20:12;;;;;;;23.63;16.87;;;;;;;2.58;95.65;99573.50;5057281;28;20467;-70
2022/01/17 04:22:43;;;;;;;20.70;16.07;;;;;;;2.58;96.05;99576.13;5057620;28;20189;-70
2022/01/17 04:25:09;;;;;;;20.73;15.63;;;;;;;2.59;96.30;99562.06;5057227;28;20612;-70
2022/01/17 04:27:36;;;;;;;20.80;15.83;;;;;;;2.54;97.38;99564.25;5056986;28;20609;-70
2022/01/17 04:30:06;;;;;;;21.17;16.13;;;;;;;2.57;97.04;99566.59;5057171;28;20628;-70
2022/01/17 04:32:33;;;;;;;22.17;16.53;;;;;;;2.54;99.10;99551.13;5057110;28;20632;-70
2022/01/17 04:34:59;;;;;;;20.40;15.63;;;;;;;2.50;100.00;99551.50;5056966;28;20610;-70
2022/01/17 04:37:25;;;;;;;20.13;15.77;;;;;;;2.47;100.00;99547.38;5056924;28;20225;-70
2022/01/17 04:39:52;;;;;;;21.70;16.53;;;;;;;2.44;100.00;99557.31;5057177;28;20201;-70
2022/01/17 04:42:26;;;;;;;22.37;16.73;;;;;;;2.39;100.00;99573.44;5056986;28;20223;-70
2022/01/17 04:45:13;;;;;;;19.90;15.70;;;;;;;2.42;100.00;99581.03;5057121;28;20194;-70
2022/01/17 04:47:42;;;;;;;20.50;16.40;;;;;;;2.44;100.00;99579.09;5057016;28;20225;-71
2022/01/17 04:50:12;;;;;;;23.27;16.70;;;;;;;2.45;100.00;99572.06;5056764;28;20599;-70
2022/01/17 04:52:39;;;;;;;20.87;15.87;;;;;;;2.45;100.00;99572.06;5056991;28;20202;-70
2022/01/17 04:55:09;;;;;;;19.87;15.60;;;;;;;2.48;98.98;99575.25;5057390;28;20197;-72
2022/01/17 04:57:35;;;;;;;21.07;16.03;;;;;;;2.53;98.62;99585.38;5056833;28;20231;-72
2022/01/17 05:00:02;;;;;;;21.17;16.83;;;;;;;2.55;99.42;99579.03;5056935;28;20208;-72
2022/01/17 05:02:28;;;;;;;21.50;16.60;;;;;;;2.53;99.62;99577.50;5056812;28;20511;-73
2022/01/17 05:04:55;;;;;;;22.97;17.07;;;;;;;2.47;100.00;99581.47;5056773;28;20211;-73
2022/01/17 05:07:21;;;;;;;21.07;15.43;;;;;;;2.47;100.00;99586.72;5056257;28;20523;-72
2022/01/17 05:09:47;;;;;;;21.23;16.30;;;;;;;2.52;100.00;99588.97;5056295;28;20632;-73
2022/01/17 05:12:14;;;;;;;20.17;15.70;;;;;;;2.56;100.00;99590.34;5056643;28;20288;-73
2022/01/17 05:14:43;;;;;;;20.83;15.53;;;;;;;2.56;100.00;99588.56;5056643;28;20213;-73
2022/01/17 05:17:23;;;;;;;19.73;15.53;;;;;;;2.56;100.00;99579.84;5056547;28;20590;-73
2022/01/17 05:19:54;;;;;;;23.80;16.10;;;;;;;2.53;100.00;99586.19;5056221;28;20190;-73
2022/01/17 05:22:20;;;;;;;20.20;15.97;;;;;;;2.57;100.00;99584.16;5056243;28;20202;-74
2022/01/17 05:24:48;;;;;;;19.27;14.97;;;;;;;2.55;100.00;99593.94;5056330;28;20495;-72
2022/01/17 05:27:14;;;;;;;19.10;14.97;;;;;;;2.55;100.00;99599.19;5056280;28;20228;-72
2022/01/17 05:29:41;;;;;;;16.40;12.87;;;;;;;2.67;99.98;99596.34;5056138;28;20520;-72
2022/01/17 05:32:08;;;;;;;18.80;13.77;;;;;;;2.60;100.00;99584.72;5056256;28;20203;-72
2022/01/17 05:34:40;;;;;;;20.13;13.73;;;;;;;2.63;100.00;99581.84;5055985;28;20198;-72
2022/01/17 05:37:07;;;;;;;15.20;12.17;;;;;;;2.72;100.00;99570.53;5055992;28;20229;-73
2022/01/17 05:39:34;;;;;;;16.13;11.83;;;;;;;2.69;100.00;99567.34;5055335;28;20201;-73
2022/01/17 05:42:00;;;;;;;16.83;12.53;;;;;;;2.74;100.00;99565.13;5055690;28;20276;-72
2022/01/17 05:44:27;;;;;;;15.27;11.30;;;;;;;2.79;100.00;99576.06;5055625;28;20197;-72
2022/01/17 05:46:53;;;;;;;14.30;11.73;;;;;;;2.76;100.00;99577.16;5055646;28;20261;-72
2022/01/17 05:49:19;;;;;;;11.83;9.40;;;;;;;2.84;100.00;99585.22;5055759;28;20278;-73
2022/01/17 05:51:46;;;;;;;13.00;10.17;;;;;;;2.84;100.00;99579.16;5055827;28;20224;-73
2022/01/17 05:54:12;;;;;;;12.40;9.10;;;;;;;2.88;99.53;99575.25;5056030;28;20186;-73
2022/01/17 05:56:38;;;;;;;13.07;9.53;;;;;;;2.84;100.00;99571.28;5055768;28;20217;-72
2022/01/17 05:59:05;;;;;;;12.73;9.57;;;;;;;2.83;100.00;99582.72;5056025;28;20190;-73
2022/01/17 06:01:31;;;;;;;11.27;8.43;;;;;;;2.85;100.00;99571.13;5055683;28;20605;-72
2022/01/17 06:03:58;;;;;;;10.33;8.27;;;;;;;2.96;100.00;99578.06;5055384;28;20581;-72
2022/01/17 06:06:24;;;;;;;13.00;7.70;;;;;;;2.90;100.00;99581.25;5055373;28;20500;-73
2022/01/17 06:08:50;;;;;;;9.17;7.07;;;;;;;3.09;99.24;99583.91;5055209;28;20228;-73
2022/01/17 06:11:17;;;;;;;8.90;7.33;;;;;;;3.10;98.92;99578.53;5055239;28;20210;-72
2022/01/17 06:13:44;;;;;;;10.50;7.13;;;;;;;3.21;97.94;99580.22;5055296;28;20199;-72
2022/01/17 06:16:10;;;;;;;10.93;7.93;;;;;;;3.26;97.56;99585.88;5055411;28;20185;-72
2022/01/17 06:18:37;;;;;;;8.73;7.77;;;;;;;3.21;97.95;99590.72;5055209;28;20221;-73
2022/01/17 06:21:03;;;;;;;8.93;7.27;;;;;;;3.20;98.22;99592.50;5055386;28;20185;-72
2022/01/17 06:23:29;;;;;;;10.27;8.07;;;;;;;3.19;98.26;99595.25;5055180;28;20201;-71
2022/01/17 06:25:56;;;;;;;12.13;8.07;;;;;;;3.25;97.82;99600.81;5055359;28;20197;-72
2022/01/17 06:28:22;;;;;;;9.00;7.53;;;;;;;3.24;98.74;99593.06;5055127;28;20256;-72
2022/01/17 06:30:50;;;;;;;10.03;8.20;;;;;;;3.15;99.61;99605.22;5055103;28;20600;-72
2022/01/17 06:33:16;;;;;;;9.80;7.90;;;;;;;3.29;98.64;99604.03;5054963;28;20190;-71
2022/01/17 06:35:43;;;;;;;8.03;7.23;;;;;;;3.26;99.14;99601.66;5055145;28;20217;-71
2022/01/17 06:38:09;;;;;;;11.07;7.70;;;;;;;3.19;99.36;99606.63;5054965;28;20240;-72
2022/01/17 06:40:35;;;;;;;10.37;7.13;;;;;;;3.17;99.47;99608.53;5055296;28;20193;-72
2022/01/17 06:43:04;;;;;;;9.50;7.40;;;;;;;3.22;99.08;99627.38;5054683;28;20228;-71
2022/01/17 06:45:31;;;;;;;9.67;7.60;;;;;;;3.22;98.42;99624.75;5054844;28;20189;-72
2022/01/17 06:47:57;;;;;;;8.60;7.70;;;;;;;3.22;98.92;99639.69;5055240;28;20229;-71
2022/01/17 06:50:23;;;;;;;10.47;7.57;;;;;;;3.20;99.14;99641.63;5054997;28;20265;-71
2022/01/17 06:52:50;;;;;;;9.23;6.90;;;;;;;3.22;98.90;99637.91;5057905;28;20500;-71
2022/01/17 06:55:16;;;;;;;8.70;7.40;;;;;;;3.21;98.87;99646.72;5058774;28;20186;-71
2022/01/17 06:57:42;;;;;;;8.40;7.10;;;;;;;3.26;98.87;99638.44;5058789;28;20221;-72
2022/01/17 07:00:11;;;;;;;7.93;7.13;;;;;;;3.28;98.16;99631.25;5058455;28;20203;-71
2022/01/17 07:02:37;;;;;;;10.83;7.13;;;;;;;3.24;98.57;99635.94;5058553;28;20201;-71
2022/01/17 07:05:04;;;;;;;10.13;7.10;;;;;;;3.24;99.01;99635.09;5058559;28;20185;-71
2022/01/17 07:07:31;;;;;;;9.20;7.30;;;;;;;3.21;98.76;99630.94;5058557;28;20232;-72
2022/01/17 07:09:57;;;;;;;10.17;6.97;;;;;;;3.26;99.07;99643.72;5058843;28;20303;-72
2022/01/17 07:12:23;;;;;;;7.73;6.93;;;;;;;3.26;97.76;99667.38;5058611;28;20198;-72
2022/01/17 07:14:50;;;;;;;7.13;6.13;;;;;;;3.37;97.76;99685.63;5058418;28;20600;-72
2022/01/17 07:17:16;;;;;;;7.50;6.33;;;;;;;3.50;96.81;99679.19;5058206;28;20231;-71
2022/01/17 07:19:42;;;;;;;7.83;6.50;;;;;;;3.43;96.77;99678.06;5058296;28;20189;-71
2022/01/17 07:22:09;;;;;;;9.83;6.87;;;;;;;3.36;98.19;99694.50;5058172;28;20194;-71
2022/01/17 07:24:37;;;;;;;8.03;6.57;;;;;;;3.31;97.76;99692.28;5058594;28;20196;-71
2022/01/17 07:27:04;;;;;;;7.27;5.77;;;;;;;3.33;97.92;99698.22;5058368;28;20217;-71
2022/01/17 07:29:30;;;;;;;8.17;6.80;;;;;;;3.35;98.00;99711.25;5057448;28;20529;-71
2022/01/17 07:31:57;;;;;;;7.00;6.10;;;;;;;3.35;98.46;99696.28;5058652;28;20189;-72
2022/01/17 07:34:23;;;;;;;7.73;6.60;;;;;;;3.37;98.09;99694.38;5058304;28;20185;-71
2022/01/17 07:36:49;;;;;;;8.00;6.40;;;;;;;3.37;98.61;99685.63;5058475;28;20221;-72
2022/01/17 07:39:16;;;;;;;7.77;5.77;;;;;;;3.37;98.13;99673.34;5058363;28;20197;-72
2022/01/17 07:41:43;;;;;;;6.50;4.87;;;;;;;3.40;97.17;99669.63;5058093;28;20292;-71
2022/01/17 07:44:19;;;;;;;5.10;4.60;;;;;;;3.43;96.95;99678.06;5058006;28;20247;-71
2022/01/17 07:46:50;;;;;;;4.87;4.37;;;;;;;3.51;96.01;99682.63;5058232;28;20217;-71
2022/01/17 07:49:19;;;;;;;4.97;4.47;;;;;;;3.55;96.16;99678.75;5057682;28;20559;-71
2022/01/17 07:51:48;;;;;;;4.60;3.57;;;;;;;3.67;94.76;99686.41;5058147;28;20335;-71
2022/01/17 07:54:15;;;;;;;4.63;3.97;;;;;;;3.63;94.89;99687.66;5057865;28;20212;-71
2022/01/17 07:56:46;;;;;;;4.20;3.80;;;;;;;3.59;95.32;99693.31;5058026;28;20308;-71
2022/01/17 07:59:13;;;;;;;4.90;3.97;;;;;;;3.60;95.59;99706.34;5058040;28;20479;-72
2022/01/17 08:01:41;;;;;;;5.63;3.97;;;;;;;3.61;95.75;99707.16;5057585;28;20481;-71
2022/01/17 08:04:08;;;;;;;4.07;3.63;;;;;;;3.65;95.02;99701.50;5058048;28;20186;-71
2022/01/17 08:06:36;;;;;;;4.47;3.80;;;;;;;3.73;94.35;99691.13;5057288;28;20185;-71
2022/01/17 08:09:15;;;;;;;3.80;3.43;;;;;;;3.78;93.95;99698.59;5057883;28;20217;-72
2022/01/17 08:11:42;;;;;;;3.80;3.30;;;;;;;3.85;93.46;99705.81;5057661;28;20616;-72
2022/01/17 08:14:08;;;;;;;3.67;3.37;;;;;;;3.94;93.69;99704.97;5057708;28;20201;-72
2022/01/17 08:16:35;;;;;;;4.50;3.87;;;;;;;3.83;94.21;99707.75;5057685;28;20248;-71
2022/01/17 08:19:01;;;;;;;4.47;3.87;;;;;;;3.87;93.60;99705.66;5057786;28;20202;-71
2022/01/17 08:21:28;;;;;;;4.23;3.70;;;;;;;3.90;94.33;99703.63;5057348;28;20208;-72
2022/01/17 08:23:54;;;;;;;4.87;4.20;;;;;;;3.93;94.33;99697.25;5057641;28;20208;-71
2022/01/17 08:26:22;;;;;;;4.23;3.80;;;;;;;3.98;93.49;99701.13;5057058;28;20453;-72
2022/01/17 08:28:49;;;;;;;6.50;3.80;;;;;;;3.99;92.33;99694.06;5056981;28;20632;-72
2022/01/17 08:31:16;;;;;;;4.47;3.60;;;;;;;3.97;91.97;99690.75;5057389;28;20232;-71
2022/01/17 08:33:42;;;;;;;4.77;4.07;;;;;;;4.01;92.63;99689.47;5056905;28;20577;-72
2022/01/17 08:36:11;;;;;;;3.47;3.10;;;;;;;4.04;91.24;99697.09;5057199;28;20209;-70
2022/01/17 08:38:37;;;;;;;3.40;3.10;;;;;;;4.07;90.93;99694.22;5057248;28;20567;-72
2022/01/17 08:41:03;;;;;;;3.97;3.33;;;;;;;4.09;89.99;99676.47;5057179;28;20197;-71
2022/01/17 08:43:30;;;;;;;4.10;3.60;;;;;;;4.17;89.67;99677.44;5056616;28;20212;-71
2022/01/17 08:45:56;;;;;;;3.50;3.20;;;;;;;4.21;89.51;99673.53;5056764;28;20273;-71
2022/01/17 08:48:23;;;;;;;3.80;3.40;;;;;;;4.28;88.64;99682.56;5057537;28;20248;-71
2022/01/17 08:50:50;;;;;;;4.23;2.97;;;;;;;4.37;88.80;99676.44;5057011;28;20201;-71
2022/01/17 08:53:18;;;;;;;5.80;3.50;;;;;;;4.42;88.85;99674.22;5056954;28;20196;-71
2022/01/17 08:55:46;;;;;;;4.50;3.20;;;;;;;4.55;87.64;99687.94;5056969;28;20205;-71
2022/01/17 08:58:14;;;;;;;3.53;2.80;;;;;;;4.60;86.92;99695.38;5056724;28;20228;-71
2022/01/17 09:00:42;;;;;;;4.40;3.27;;;;;;;4.53;87.13;99704.84;5056889;28;20209;-71
2022/01/17 09:03:08;;;;;;;4.47;3.27;;;;;;;4.56;86.35;99713.28;5056868;28;20193;-73
2022/01/17 09:05:35;;;;;;;3.57;3.27;;;;;;;4.63;86.83;99703.03;5056873;28;20209;-71
2022/01/17 09:08:03;;;;;;;3.43;3.10;;;;;;;4.60;87.09;99711.19;5056353;28;20674;-72
2022/01/17 09:10:30;;;;;;;3.63;2.87;;;;;;;4.65;85.91;99709.81;5056743;28;20210;-72
2022/01/17 09:12:57;;;;;;;3.60;3.23;;;;;;;4.71;86.25;99717.13;5056444;28;20205;-72
2022/01/17 09:15:25;;;;;;;3.60;3.27;;;;;;;4.82;85.13;99721.41;5055954;28;20189;-72
2022/01/17 09:17:51;;;;;;;3.27;2.97;;;;;;;4.87;84.75;99712.13;5056499;28;20217;-72
2022/01/17 09:20:18;;;;;;;4.67;3.30;;;;;;;4.88;84.69;99721.69;5056656;28;20192;-72
2022/01/17 09:22:44;;;;;;;3.57;3.27;;;;;;;4.89;83.94;99707.53;5056665;28;20208;-72
2022/01/17 09:25:11;;;;;;;3.50;3.10;;;;;;;4.96;84.53;99694.59;5056188;28;20605;-72
2022/01/17 09:27:38;;;;;;;3.93;2.80;;;;;;;5.07;83.09;99702.34;5056366;28;20221;-72
2022/01/17 09:30:08;;;;;;;8.37;3.60;;;;;;;5.00;82.93;99714.44;5056258;28;20537;-72
2022/01/17 09:32:38;;;;;;;5.43;3.47;;;;;;;5.11;82.96;99724.81;5056120;28;20190;-72
2022/01/17 09:35:08;;;;;;;4.10;2.60;;;;;;;5.10;83.84;99738.94;5056133;28;20220;-72
2022/01/17 09:37:36;;;;;;;3.30;2.50;;;;;;;5.24;82.33;99751.69;5056106;28;20243;-72
2022/01/17 09:40:02;;;;;;;3.43;2.57;;;;;;;5.29;83.13;99767.91;5056308;28;20197;-72
2022/01/17 09:42:35;;;;;;;2.70;2.20;;;;;;;5.34;81.78;99768.31;5056044;28;20213;-72
2022/01/17 09:45:01;;;;;;;4.53;2.60;;;;;;;5.31;81.50;99776.50;5056266;28;20229;-72
2022/01/17 09:47:29;;;;;;;2.57;2.30;;;;;;;5.45;82.14;99774.22;5056118;28;20279;-72
2022/01/17 09:49:56;;;;;;;3.00;2.50;;;;;;;5.42;81.85;99747.31;5056143;28;20308;-72
2022/01/17 09:52:34;;;;;;;3.77;2.30;;;;;;;5.53;81.31;99765.59;5056278;28;20209;-72
2022/01/17 09:55:23;;;;;;;5.37;2.80;;;;;;;5.64;81.59;99773.28;5055912;28;20189;-72
2022/01/17 09:57:55;;;;;;;3.53;2.27;;;;;;;5.71;80.17;99766.47;5056113;28;20231;-72
2022/01/17 10:00:26;;;;;;;3.50;2.30;;;;;;;5.79;80.00;99775.31;5056142;28;20186;-72
2022/01/17 10:02:58;;;;;;;2.67;2.27;;;;;;;5.73;79.94;99773.25;5056030;28;20189;-72
2022/01/17 10:05:27;;;;;;;2.70;2.40;;;;;;;5.68;79.93;99767.59;5055388;28;20589;-72
2022/01/17 10:08:04;;;;;;;2.83;2.13;;;;;;;5.78;79.27;99784.22;5055380;28;20221;-72
2022/01/17 10:10:38;;;;;;;2.07;1.87;;;;;;;5.64;79.22;99779.41;5055731;28;20213;-72
2022/01/17 10:13:09;;;;;;;2.40;1.77;;;;;;;5.65;78.16;99767.88;5055877;28;20279;-72
2022/01/17 10:15:45;;;;;;;2.10;1.90;;;;;;;5.75;79.50;99773.13;5055401;28;20189;-73
2022/01/17 10:18:26;;;;;;;4.10;1.73;;;;;;;5.78;78.87;99778.94;5055387;28;20640;-72
2022/01/17 10:20:57;;;;;;;2.73;1.83;;;;;;;5.77;78.37;99761.44;5056321;28;20201;-72
2022/01/17 10:23:42;;;;;;;2.00;1.90;;;;;;;5.83;79.08;99762.69;5055467;28;20577;-73
2022/01/17 10:26:18;;;;;;;3.03;1.83;;;;;;;5.77;79.87;99747.41;5057785;28;20196;-72
2022/01/17 10:29:17;;;;;;;2.30;1.90;;;;;;;5.82;79.74;99748.66;5059799;28;20272;-72
2022/01/17 10:34:55;;;;;;;1.87;1.73;;;;;;;5.76;77.81;99751.03;5017705;28;20190;-72
2022/01/17 10:37:27;;;;;;;2.80;1.77;;;;;;;6.01;78.27;99745.09;5017689;28;20222;-72
2022/01/17 10:40:00;;;;;;;2.20;1.73;;;;;;;6.11;78.25;99759.03;5041174;28;20478;-72
2022/01/17 10:42:35;;;;;;;2.87;2.00;;;;;;;6.18;76.58;99768.84;5058976;28;20244;-72
2022/01/17 10:45:13;;;;;;;4.90;3.33;;;;;;;6.30;77.06;99787.94;5059364;28;20235;-72
2022/01/17 10:47:43;;;;;;;7.93;5.30;;;;;;;6.05;79.61;99792.16;5058998;28;20480;-73
2022/01/17 10:50:33;;;;;;;3.43;3.13;;;;;;;5.57;80.78;99791.50;5058743;28;20321;-72
2022/01/17 10:53:02;;;;;;;4.00;3.60;;;;;;;5.52;80.87;99798.22;5059181;28;20193;-72
2022/01/17 10:55:35;;;;;;;3.70;3.30;;;;;;;5.41;82.02;99793.94;5059807;28;20512;-73
2022/01/17 10:58:09;;;;;;;5.03;4.00;;;;;;;5.46;80.73;99806.69;5059089;28;20220;-72
2022/01/17 11:00:46;;;;;;;5.73;4.30;;;;;;;5.08;84.09;99789.19;5058970;28;20196;-71
2022/01/17 11:03:15;;;;;;;5.33;4.83;;;;;;;5.03;84.87;99811.69;5058573;28;20212;-72
2022/01/17 11:05:44;;;;;;;4.03;3.63;;;;;;;5.12;84.37;99800.28;5058898;28;20201;-72
2022/01/17 11:08:12;;;;;;;7.07;5.90;;;;;;;5.22;83.49;99806.38;5058807;28;20225;-73
2022/01/17 11:10:42;;;;;;;9.37;6.77;;;;;;;5.20;83.52;99810.97;5058721;28;20367;-73
2022/01/17 11:13:11;;;;;;;5.30;4.60;;;;;;;5.08;83.09;99810.28;5058912;28;20208;-73
2022/01/17 11:15:40;;;;;;;5.50;4.40;;;;;;;5.15;83.35;99794.75;5058735;28;20194;-73
2022/01/17 11:18:17;;;;;;;5.10;4.50;;;;;;;5.09;84.64;99787.38;5058654;28;20228;-73
2022/01/17 11:20:44;;;;;;;5.40;4.90;;;;;;;4.99;83.92;99805.03;5058771;28;20192;-73
2022/01/17 11:23:11;;;;;;;5.30;4.30;;;;;;;4.86;85.02;99805.34;5074715;28;20200;-73
2022/01/17 11:25:42;;;;;;;6.03;4.50;;;;;;;4.85;85.58;99802.84;5078745;28;20206;-73
2022/01/17 11:28:09;;;;;;;6.57;4.40;;;;;;;4.80;85.89;99810.31;5068075;28;20221;-73
2022/01/17 11:30:38;;;;;;;5.50;4.87;;;;;;;4.68;86.03;99814.06;5058529;28;20213;-73
2022/01/17 11:33:07;;;;;;;5.97;4.77;;;;;;;4.51;87.07;99804.22;5058193;28;20228;-72
2022/01/17 11:35:37;;;;;;;5.60;4.77;;;;;;;4.55;87.36;99808.25;5058634;28;20186;-73
2022/01/17 11:38:05;;;;;;;4.70;4.30;;;;;;;4.52;87.08;99801.44;5058163;28;20236;-72
2022/01/17 11:40:37;;;;;;;5.33;4.67;;;;;;;4.58;87.41;99808.81;5057887;28;20205;-73
2022/01/17 11:43:35;;;;;;;5.77;4.80;;;;;;;4.78;87.32;99793.81;5057894;28;20205;-72
2022/01/17 11:46:26;;;;;;;3.83;3.53;;;;;;;4.86;86.63;99796.59;5058241;28;20194;-72
2022/01/17 11:49:02;;;;;;;5.10;4.17;;;;;;;4.90;86.27;99783.00;5057753;28;20326;-72
2022/01/17 11:51:39;;;;;;;3.57;3.27;;;;;;;4.95;84.75;99787.84;5057539;28;20285;-72
2022/01/17 11:54:17;;;;;;;4.03;3.63;;;;;;;4.94;86.38;99757.19;5057853;28;20190;-72
2022/01/17 11:56:53;;;;;;;3.10;2.80;;;;;;;4.93;84.78;99752.91;5057871;28;20248;-72